sensor_id;sensor_type;location;lat;lon;timestamp;temperature;humidity
4826;DHT22;2427;50.934;6.776;2022-12-07T00:00:48;4.40;93.50
4826;DHT22;2427;50.934;6.776;2022-12-07T00:03:14;4.30;91.30
4826;DHT22;2427;50.934;6.776;2022-12-07T00:05:39;4.30;89.50
4826;DHT22;2427;50.934;6.776;2022-12-07T00:08:05;4.30;86.30
4826;DHT22;2427;50.934;6.776;2022-12-07T00:10:33;4.30;81.90
4826;DHT22;2427;50.934;6.776;2022-12-07T00:12:59;4.30;80.00
4826;DHT22;2427;50.934;6.776;2022-12-07T00:15:24;4.30;77.30
4826;DHT22;2427;50.934;6.776;2022-12-07T00:17:50;4.30;70.00
4826;DHT22;2427;50.934;6.776;2022-12-07T00:20:15;4.20;69.80
4826;DHT22;2427;50.934;6.776;2022-12-07T00:22:41;4.20;71.70
4826;DHT22;2427;50.934;6.776;2022-12-07T00:25:07;4.20;77.10
4826;DHT22;2427;50.934;6.776;2022-12-07T00:27:32;4.20;79.10
4826;DHT22;2427;50.934;6.776;2022-12-07T00:29:58;4.20;83.00
4826;DHT22;2427;50.934;6.776;2022-12-07T00:32:23;4.20;87.40
4826;DHT22;2427;50.934;6.776;2022-12-07T00:34:49;4.20;89.50
4826;DHT22;2427;50.934;6.776;2022-12-07T00:37:14;4.20;90.00
4826;DHT22;2427;50.934;6.776;2022-12-07T00:39:40;4.20;89.60
4826;DHT22;2427;50.934;6.776;2022-12-07T00:42:05;4.30;93.00
4826;DHT22;2427;50.934;6.776;2022-12-07T00:44:31;4.30;92.60
4826;DHT22;2427;50.934;6.776;2022-12-07T00:46:56;4.30;92.80
4826;DHT22;2427;50.934;6.776;2022-12-07T00:49:22;4.30;93.00
4826;DHT22;2427;50.934;6.776;2022-12-07T00:51:48;4.30;92.50
4826;DHT22;2427;50.934;6.776;2022-12-07T00:54:14;4.30;91.60
4826;DHT22;2427;50.934;6.776;2022-12-07T00:56:40;4.30;90.40
4826;DHT22;2427;50.934;6.776;2022-12-07T00:59:05;4.30;86.50
4826;DHT22;2427;50.934;6.776;2022-12-07T01:01:34;4.30;83.10
4826;DHT22;2427;50.934;6.776;2022-12-07T01:04:00;4.30;83.30
4826;DHT22;2427;50.934;6.776;2022-12-07T01:06:27;4.30;83.30
4826;DHT22;2427;50.934;6.776;2022-12-07T01:08:53;4.40;85.10
4826;DHT22;2427;50.934;6.776;2022-12-07T01:11:22;4.40;86.80
4826;DHT22;2427;50.934;6.776;2022-12-07T01:13:51;4.50;82.90
4826;DHT22;2427;50.934;6.776;2022-12-07T01:16:17;4.50;72.20
4826;DHT22;2427;50.934;6.776;2022-12-07T01:18:46;4.50;59.70
4826;DHT22;2427;50.934;6.776;2022-12-07T01:21:15;4.50;50.80
4826;DHT22;2427;50.934;6.776;2022-12-07T01:23:41;4.50;46.90
4826;DHT22;2427;50.934;6.776;2022-12-07T01:26:10;4.50;41.60
4826;DHT22;2427;50.934;6.776;2022-12-07T01:28:36;4.50;43.10
4826;DHT22;2427;50.934;6.776;2022-12-07T01:31:05;4.50;39.80
4826;DHT22;2427;50.934;6.776;2022-12-07T01:33:34;4.50;31.50
4826;DHT22;2427;50.934;6.776;2022-12-07T01:38:39;4.50;29.20
4826;DHT22;2427;50.934;6.776;2022-12-07T01:41:05;4.50;28.80
4826;DHT22;2427;50.934;6.776;2022-12-07T01:43:32;4.50;26.40
4826;DHT22;2427;50.934;6.776;2022-12-07T01:45:59;4.50;29.70
4826;DHT22;2427;50.934;6.776;2022-12-07T01:48:39;4.50;25.00
4826;DHT22;2427;50.934;6.776;2022-12-07T01:51:11;4.50;23.20
4826;DHT22;2427;50.934;6.776;2022-12-07T01:53:43;4.50;26.30
4826;DHT22;2427;50.934;6.776;2022-12-07T01:56:12;4.50;26.80
4826;DHT22;2427;50.934;6.776;2022-12-07T01:58:39;4.50;27.30
4826;DHT22;2427;50.934;6.776;2022-12-07T02:11:26;4.60;24.10
4826;DHT22;2427;50.934;6.776;2022-12-07T02:13:53;4.60;24.00
4826;DHT22;2427;50.934;6.776;2022-12-07T02:26:59;4.50;22.40
4826;DHT22;2427;50.934;6.776;2022-12-07T02:32:24;4.50;22.80
4826;DHT22;2427;50.934;6.776;2022-12-07T02:35:01;4.60;28.30
4826;DHT22;2427;50.934;6.776;2022-12-07T02:37:34;4.60;29.50
4826;DHT22;2427;50.934;6.776;2022-12-07T02:40:09;4.50;23.80
4826;DHT22;2427;50.934;6.776;2022-12-07T02:42:46;4.60;25.10
4826;DHT22;2427;50.934;6.776;2022-12-07T02:45:15;4.60;20.70
4826;DHT22;2427;50.934;6.776;2022-12-07T02:47:43;4.50;20.00
4826;DHT22;2427;50.934;6.776;2022-12-07T02:50:10;4.60;20.20
4826;DHT22;2427;50.934;6.776;2022-12-07T02:52:35;4.60;18.60
4826;DHT22;2427;50.934;6.776;2022-12-07T02:55:01;4.50;17.10
4826;DHT22;2427;50.934;6.776;2022-12-07T03:00:24;4.50;21.30
4826;DHT22;2427;50.934;6.776;2022-12-07T03:03:00;4.50;23.50
4826;DHT22;2427;50.934;6.776;2022-12-07T03:11:08;4.50;17.10
4826;DHT22;2427;50.934;6.776;2022-12-07T03:13:49;4.60;16.40
4826;DHT22;2427;50.934;6.776;2022-12-07T03:16:21;4.60;15.30
4826;DHT22;2427;50.934;6.776;2022-12-07T03:19:36;4.50;9.20
4826;DHT22;2427;50.934;6.776;2022-12-07T03:21:46;4.60;8.50
4826;DHT22;2427;50.934;6.776;2022-12-07T03:24:17;4.60;2.60
4826;DHT22;2427;50.934;6.776;2022-12-07T03:27:49;4.60;1.00
4826;DHT22;2427;50.934;6.776;2022-12-07T03:30:08;4.60;2.00
4826;DHT22;2427;50.934;6.776;2022-12-07T03:32:43;4.60;3.80
4826;DHT22;2427;50.934;6.776;2022-12-07T03:38:27;4.60;1.00
4826;DHT22;2427;50.934;6.776;2022-12-07T03:41:00;4.60;3.70
4826;DHT22;2427;50.934;6.776;2022-12-07T03:43:29;4.60;1.00
4826;DHT22;2427;50.934;6.776;2022-12-07T03:48:36;4.50;2.60
4826;DHT22;2427;50.934;6.776;2022-12-07T03:51:13;4.60;2.40
4826;DHT22;2427;50.934;6.776;2022-12-07T03:56:57;4.50;1.00
4826;DHT22;2427;50.934;6.776;2022-12-07T03:59:24;4.50;1.00
4826;DHT22;2427;50.934;6.776;2022-12-07T04:01:56;4.50;1.00
4826;DHT22;2427;50.934;6.776;2022-12-07T04:04:24;4.50;1.40
4826;DHT22;2427;50.934;6.776;2022-12-07T04:06:50;4.50;2.50
4826;DHT22;2427;50.934;6.776;2022-12-07T04:09:16;4.50;1.00
4826;DHT22;2427;50.934;6.776;2022-12-07T04:11:42;4.50;1.80
4826;DHT22;2427;50.934;6.776;2022-12-07T04:14:07;4.50;1.00
4826;DHT22;2427;50.934;6.776;2022-12-07T04:16:53;4.50;1.00
4826;DHT22;2427;50.934;6.776;2022-12-07T04:19:21;4.40;1.00
4826;DHT22;2427;50.934;6.776;2022-12-07T04:21:47;4.40;1.00
4826;DHT22;2427;50.934;6.776;2022-12-07T04:24:14;4.40;3.10
4826;DHT22;2427;50.934;6.776;2022-12-07T04:26:40;4.50;5.40
4826;DHT22;2427;50.934;6.776;2022-12-07T04:29:06;4.40;1.20
4826;DHT22;2427;50.934;6.776;2022-12-07T04:31:32;4.40;1.00
4826;DHT22;2427;50.934;6.776;2022-12-07T04:33:57;4.40;1.00
4826;DHT22;2427;50.934;6.776;2022-12-07T04:36:23;4.50;1.00
4826;DHT22;2427;50.934;6.776;2022-12-07T04:38:49;4.50;1.00
4826;DHT22;2427;50.934;6.776;2022-12-07T04:41:14;4.50;1.00
4826;DHT22;2427;50.934;6.776;2022-12-07T04:43:40;4.50;1.00
4826;DHT22;2427;50.934;6.776;2022-12-07T04:46:05;4.50;1.00
4826;DHT22;2427;50.934;6.776;2022-12-07T04:48:31;4.40;1.00
4826;DHT22;2427;50.934;6.776;2022-12-07T04:50:56;4.40;1.00
4826;DHT22;2427;50.934;6.776;2022-12-07T04:53:22;4.40;1.00
4826;DHT22;2427;50.934;6.776;2022-12-07T04:55:48;4.40;1.00
4826;DHT22;2427;50.934;6.776;2022-12-07T04:58:14;4.40;1.00
4826;DHT22;2427;50.934;6.776;2022-12-07T05:00:39;4.30;1.00
4826;DHT22;2427;50.934;6.776;2022-12-07T05:03:05;4.30;1.00
4826;DHT22;2427;50.934;6.776;2022-12-07T05:05:31;4.30;1.00
4826;DHT22;2427;50.934;6.776;2022-12-07T05:07:56;4.30;1.00
4826;DHT22;2427;50.934;6.776;2022-12-07T05:10:22;4.30;1.00
4826;DHT22;2427;50.934;6.776;2022-12-07T05:12:48;4.30;1.00
4826;DHT22;2427;50.934;6.776;2022-12-07T05:15:15;4.30;1.00
4826;DHT22;2427;50.934;6.776;2022-12-07T05:17:40;4.30;1.00
4826;DHT22;2427;50.934;6.776;2022-12-07T05:20:07;4.30;1.00
4826;DHT22;2427;50.934;6.776;2022-12-07T05:22:33;4.40;1.00
4826;DHT22;2427;50.934;6.776;2022-12-07T05:24:59;4.40;1.00
4826;DHT22;2427;50.934;6.776;2022-12-07T05:27:24;4.40;1.00
4826;DHT22;2427;50.934;6.776;2022-12-07T05:29:50;4.40;1.00
4826;DHT22;2427;50.934;6.776;2022-12-07T05:32:17;4.40;1.00
4826;DHT22;2427;50.934;6.776;2022-12-07T05:34:42;4.30;1.00
4826;DHT22;2427;50.934;6.776;2022-12-07T05:37:08;4.30;1.00
4826;DHT22;2427;50.934;6.776;2022-12-07T05:39:33;4.30;1.00
4826;DHT22;2427;50.934;6.776;2022-12-07T05:41:59;4.30;1.00
4826;DHT22;2427;50.934;6.776;2022-12-07T05:44:37;4.30;1.00
4826;DHT22;2427;50.934;6.776;2022-12-07T05:47:03;4.30;1.00
4826;DHT22;2427;50.934;6.776;2022-12-07T05:49:28;4.30;1.00
4826;DHT22;2427;50.934;6.776;2022-12-07T05:51:54;4.40;1.00
4826;DHT22;2427;50.934;6.776;2022-12-07T05:54:20;4.30;1.00
4826;DHT22;2427;50.934;6.776;2022-12-07T05:56:45;4.30;1.00
4826;DHT22;2427;50.934;6.776;2022-12-07T05:59:11;4.30;1.00
4826;DHT22;2427;50.934;6.776;2022-12-07T06:02:18;4.30;1.00
4826;DHT22;2427;50.934;6.776;2022-12-07T06:04:45;4.30;1.00
4826;DHT22;2427;50.934;6.776;2022-12-07T06:07:14;4.30;1.00
4826;DHT22;2427;50.934;6.776;2022-12-07T06:09:40;4.30;1.00
4826;DHT22;2427;50.934;6.776;2022-12-07T06:12:06;4.30;1.00
4826;DHT22;2427;50.934;6.776;2022-12-07T06:14:53;4.20;1.00
4826;DHT22;2427;50.934;6.776;2022-12-07T06:17:18;4.20;1.00
4826;DHT22;2427;50.934;6.776;2022-12-07T06:19:44;4.20;1.00
4826;DHT22;2427;50.934;6.776;2022-12-07T06:22:10;4.20;1.00
4826;DHT22;2427;50.934;6.776;2022-12-07T06:24:37;4.20;1.00
4826;DHT22;2427;50.934;6.776;2022-12-07T06:27:02;4.20;1.00
4826;DHT22;2427;50.934;6.776;2022-12-07T06:29:28;4.20;1.00
4826;DHT22;2427;50.934;6.776;2022-12-07T06:31:54;4.20;1.00
4826;DHT22;2427;50.934;6.776;2022-12-07T06:34:21;4.20;1.00
4826;DHT22;2427;50.934;6.776;2022-12-07T06:36:48;4.20;1.00
4826;DHT22;2427;50.934;6.776;2022-12-07T06:39:26;4.20;1.00
4826;DHT22;2427;50.934;6.776;2022-12-07T06:41:53;4.20;1.00
4826;DHT22;2427;50.934;6.776;2022-12-07T06:44:19;4.20;1.00
4826;DHT22;2427;50.934;6.776;2022-12-07T06:46:45;4.20;1.00
4826;DHT22;2427;50.934;6.776;2022-12-07T06:49:11;4.20;1.00
4826;DHT22;2427;50.934;6.776;2022-12-07T06:51:37;4.20;1.00
4826;DHT22;2427;50.934;6.776;2022-12-07T06:54:09;4.20;1.00
4826;DHT22;2427;50.934;6.776;2022-12-07T06:56:36;4.20;1.00
4826;DHT22;2427;50.934;6.776;2022-12-07T06:59:02;4.20;1.00
4826;DHT22;2427;50.934;6.776;2022-12-07T07:01:28;4.20;1.00
4826;DHT22;2427;50.934;6.776;2022-12-07T07:03:53;4.20;1.00
4826;DHT22;2427;50.934;6.776;2022-12-07T07:06:19;4.10;1.00
4826;DHT22;2427;50.934;6.776;2022-12-07T07:08:45;4.20;1.00
4826;DHT22;2427;50.934;6.776;2022-12-07T07:11:10;4.20;1.50
4826;DHT22;2427;50.934;6.776;2022-12-07T07:13:36;4.20;2.20
4826;DHT22;2427;50.934;6.776;2022-12-07T07:16:02;4.10;4.50
4826;DHT22;2427;50.934;6.776;2022-12-07T07:18:28;4.10;9.30
4826;DHT22;2427;50.934;6.776;2022-12-07T07:20:54;4.10;12.90
4826;DHT22;2427;50.934;6.776;2022-12-07T07:23:21;4.10;16.80
4826;DHT22;2427;50.934;6.776;2022-12-07T07:25:47;4.10;18.70
4826;DHT22;2427;50.934;6.776;2022-12-07T07:28:13;4.20;21.50
4826;DHT22;2427;50.934;6.776;2022-12-07T07:30:39;4.20;19.70
4826;DHT22;2427;50.934;6.776;2022-12-07T07:33:05;4.20;16.70
4826;DHT22;2427;50.934;6.776;2022-12-07T07:35:32;4.10;14.10
4826;DHT22;2427;50.934;6.776;2022-12-07T07:37:57;4.10;10.80
4826;DHT22;2427;50.934;6.776;2022-12-07T07:40:23;4.10;12.20
4826;DHT22;2427;50.934;6.776;2022-12-07T07:42:51;4.10;17.90
4826;DHT22;2427;50.934;6.776;2022-12-07T07:45:18;4.10;17.10
4826;DHT22;2427;50.934;6.776;2022-12-07T07:47:44;4.10;21.30
4826;DHT22;2427;50.934;6.776;2022-12-07T07:50:09;4.20;28.50
4826;DHT22;2427;50.934;6.776;2022-12-07T07:52:35;4.20;28.70
4826;DHT22;2427;50.934;6.776;2022-12-07T07:55:01;4.20;25.60
4826;DHT22;2427;50.934;6.776;2022-12-07T07:57:26;4.10;25.80
4826;DHT22;2427;50.934;6.776;2022-12-07T07:59:52;4.10;26.90
4826;DHT22;2427;50.934;6.776;2022-12-07T08:02:21;4.10;27.10
4826;DHT22;2427;50.934;6.776;2022-12-07T08:04:47;4.00;27.20
4826;DHT22;2427;50.934;6.776;2022-12-07T08:07:14;4.00;31.40
4826;DHT22;2427;50.934;6.776;2022-12-07T08:09:40;4.00;34.00
4826;DHT22;2427;50.934;6.776;2022-12-07T08:12:05;4.00;36.10
4826;DHT22;2427;50.934;6.776;2022-12-07T08:14:31;4.00;39.50
4826;DHT22;2427;50.934;6.776;2022-12-07T08:16:57;4.00;44.40
4826;DHT22;2427;50.934;6.776;2022-12-07T08:19:22;4.00;47.60
4826;DHT22;2427;50.934;6.776;2022-12-07T08:21:48;4.00;49.00
4826;DHT22;2427;50.934;6.776;2022-12-07T08:24:14;4.10;50.80
4826;DHT22;2427;50.934;6.776;2022-12-07T08:26:40;4.10;52.50
4826;DHT22;2427;50.934;6.776;2022-12-07T08:29:06;4.10;53.60
4826;DHT22;2427;50.934;6.776;2022-12-07T08:31:31;4.10;53.10
4826;DHT22;2427;50.934;6.776;2022-12-07T08:33:57;4.10;53.80
4826;DHT22;2427;50.934;6.776;2022-12-07T08:36:23;4.10;54.20
4826;DHT22;2427;50.934;6.776;2022-12-07T08:38:49;4.10;54.80
4826;DHT22;2427;50.934;6.776;2022-12-07T08:41:15;4.20;50.90
4826;DHT22;2427;50.934;6.776;2022-12-07T08:43:41;4.20;49.70
4826;DHT22;2427;50.934;6.776;2022-12-07T08:48:54;4.20;46.80
4826;DHT22;2427;50.934;6.776;2022-12-07T08:51:22;4.20;43.50
4826;DHT22;2427;50.934;6.776;2022-12-07T08:53:49;4.30;41.70
4826;DHT22;2427;50.934;6.776;2022-12-07T08:56:15;4.30;37.50
4826;DHT22;2427;50.934;6.776;2022-12-07T08:58:41;4.30;34.70
4826;DHT22;2427;50.934;6.776;2022-12-07T09:01:07;4.30;27.90
4826;DHT22;2427;50.934;6.776;2022-12-07T09:03:32;4.30;27.60
4826;DHT22;2427;50.934;6.776;2022-12-07T09:05:59;4.40;27.80
4826;DHT22;2427;50.934;6.776;2022-12-07T09:08:29;4.40;29.10
4826;DHT22;2427;50.934;6.776;2022-12-07T09:10:56;4.40;18.60
4826;DHT22;2427;50.934;6.776;2022-12-07T09:13:22;4.50;16.70
4826;DHT22;2427;50.934;6.776;2022-12-07T09:15:48;4.50;10.00
4826;DHT22;2427;50.934;6.776;2022-12-07T09:18:13;4.60;6.90
4826;DHT22;2427;50.934;6.776;2022-12-07T09:20:39;4.60;2.90
4826;DHT22;2427;50.934;6.776;2022-12-07T09:23:06;4.70;1.00
4826;DHT22;2427;50.934;6.776;2022-12-07T09:25:32;4.70;1.00
4826;DHT22;2427;50.934;6.776;2022-12-07T09:27:58;4.80;1.00
4826;DHT22;2427;50.934;6.776;2022-12-07T09:30:24;4.80;1.00
4826;DHT22;2427;50.934;6.776;2022-12-07T09:32:50;4.90;1.00
4826;DHT22;2427;50.934;6.776;2022-12-07T09:35:15;4.90;1.00
4826;DHT22;2427;50.934;6.776;2022-12-07T09:37:41;5.00;1.00
4826;DHT22;2427;50.934;6.776;2022-12-07T09:40:07;5.00;1.00
4826;DHT22;2427;50.934;6.776;2022-12-07T09:45:00;5.10;1.00
4826;DHT22;2427;50.934;6.776;2022-12-07T09:47:27;5.20;1.00
4826;DHT22;2427;50.934;6.776;2022-12-07T09:49:58;5.20;1.00
4826;DHT22;2427;50.934;6.776;2022-12-07T09:52:27;5.30;1.00
4826;DHT22;2427;50.934;6.776;2022-12-07T09:54:53;5.30;1.00
4826;DHT22;2427;50.934;6.776;2022-12-07T09:57:27;5.20;1.00
4826;DHT22;2427;50.934;6.776;2022-12-07T09:59:55;5.30;1.00
4826;DHT22;2427;50.934;6.776;2022-12-07T10:02:41;5.40;1.00
4826;DHT22;2427;50.934;6.776;2022-12-07T10:05:13;5.40;1.00
4826;DHT22;2427;50.934;6.776;2022-12-07T10:07:40;5.60;1.00
4826;DHT22;2427;50.934;6.776;2022-12-07T10:10:18;5.70;1.00
4826;DHT22;2427;50.934;6.776;2022-12-07T10:12:57;5.80;1.00
4826;DHT22;2427;50.934;6.776;2022-12-07T10:15:23;6.00;99.90
4826;DHT22;2427;50.934;6.776;2022-12-07T10:17:50;6.10;99.90
4826;DHT22;2427;50.934;6.776;2022-12-07T10:20:24;6.10;99.90
4826;DHT22;2427;50.934;6.776;2022-12-07T10:25:27;6.10;99.90
4826;DHT22;2427;50.934;6.776;2022-12-07T10:30:47;6.10;99.90
4826;DHT22;2427;50.934;6.776;2022-12-07T10:33:36;6.00;99.90
4826;DHT22;2427;50.934;6.776;2022-12-07T10:41:28;6.40;1.00
4826;DHT22;2427;50.934;6.776;2022-12-07T10:43:56;6.50;1.00
4826;DHT22;2427;50.934;6.776;2022-12-07T10:52:37;6.30;1.00
4826;DHT22;2427;50.934;6.776;2022-12-07T10:55:20;6.40;1.00
4826;DHT22;2427;50.934;6.776;2022-12-07T11:00:44;7.00;99.90
4826;DHT22;2427;50.934;6.776;2022-12-07T11:06:04;7.40;99.90
4826;DHT22;2427;50.934;6.776;2022-12-07T11:11:34;7.30;99.90
4826;DHT22;2427;50.934;6.776;2022-12-07T11:14:19;7.10;1.00
4826;DHT22;2427;50.934;6.776;2022-12-07T11:17:02;7.20;1.00
4826;DHT22;2427;50.934;6.776;2022-12-07T11:22:45;7.70;99.90
4826;DHT22;2427;50.934;6.776;2022-12-07T11:28:01;7.20;1.00
4826;DHT22;2427;50.934;6.776;2022-12-07T11:33:22;7.00;1.00
4826;DHT22;2427;50.934;6.776;2022-12-07T11:38:49;6.90;1.20
4826;DHT22;2427;50.934;6.776;2022-12-07T11:41:22;6.70;1.00
4826;DHT22;2427;50.934;6.776;2022-12-07T11:44:04;6.50;99.90
4826;DHT22;2427;50.934;6.776;2022-12-07T11:46:50;6.50;99.90
4826;DHT22;2427;50.934;6.776;2022-12-07T11:52:06;6.50;99.90
4826;DHT22;2427;50.934;6.776;2022-12-07T11:54:41;6.60;99.90
4826;DHT22;2427;50.934;6.776;2022-12-07T11:57:16;7.00;1.00
4826;DHT22;2427;50.934;6.776;2022-12-07T11:59:50;7.50;1.00
4826;DHT22;2427;50.934;6.776;2022-12-07T12:02:33;7.70;99.90
4826;DHT22;2427;50.934;6.776;2022-12-07T12:05:15;7.70;99.90
4826;DHT22;2427;50.934;6.776;2022-12-07T12:07:42;7.40;1.00
4826;DHT22;2427;50.934;6.776;2022-12-07T12:10:25;7.00;1.00
4826;DHT22;2427;50.934;6.776;2022-12-07T12:13:36;7.00;88.70
4826;DHT22;2427;50.934;6.776;2022-12-07T12:15:51;6.90;99.90
4826;DHT22;2427;50.934;6.776;2022-12-07T12:18:31;7.00;99.90
4826;DHT22;2427;50.934;6.776;2022-12-07T12:21:09;6.90;99.90
4826;DHT22;2427;50.934;6.776;2022-12-07T12:26:06;6.90;99.90
4826;DHT22;2427;50.934;6.776;2022-12-07T12:28:42;6.80;37.20
4826;DHT22;2427;50.934;6.776;2022-12-07T12:33:52;6.90;99.90
4826;DHT22;2427;50.934;6.776;2022-12-07T12:36:28;6.80;90.60
4826;DHT22;2427;50.934;6.776;2022-12-07T12:39:15;6.70;99.90
4826;DHT22;2427;50.934;6.776;2022-12-07T12:47:01;6.50;99.90
4826;DHT22;2427;50.934;6.776;2022-12-07T12:49:38;6.70;1.00
4826;DHT22;2427;50.934;6.776;2022-12-07T12:57:32;6.90;99.90
4826;DHT22;2427;50.934;6.776;2022-12-07T12:59:59;7.10;16.90
4826;DHT22;2427;50.934;6.776;2022-12-07T13:02:38;7.50;1.00
4826;DHT22;2427;50.934;6.776;2022-12-07T13:15:42;7.40;99.90
4826;DHT22;2427;50.934;6.776;2022-12-07T13:20:59;7.10;99.90
4826;DHT22;2427;50.934;6.776;2022-12-07T13:31:38;6.80;1.00
4826;DHT22;2427;50.934;6.776;2022-12-07T13:34:32;6.70;1.00
4826;DHT22;2427;50.934;6.776;2022-12-07T13:37:09;6.60;1.00
4826;DHT22;2427;50.934;6.776;2022-12-07T13:39:51;6.60;1.00
4826;DHT22;2427;50.934;6.776;2022-12-07T13:42:31;6.60;7.70
4826;DHT22;2427;50.934;6.776;2022-12-07T13:44:59;6.60;2.20
4826;DHT22;2427;50.934;6.776;2022-12-07T13:50:20;6.60;99.90
4826;DHT22;2427;50.934;6.776;2022-12-07T13:52:47;6.60;99.90
4826;DHT22;2427;50.934;6.776;2022-12-07T13:55:16;6.50;99.90
4826;DHT22;2427;50.934;6.776;2022-12-07T13:57:44;6.50;99.90
4826;DHT22;2427;50.934;6.776;2022-12-07T14:00:18;6.40;99.90
4826;DHT22;2427;50.934;6.776;2022-12-07T14:05:28;6.40;1.00
4826;DHT22;2427;50.934;6.776;2022-12-07T14:10:30;6.30;1.00
4826;DHT22;2427;50.934;6.776;2022-12-07T14:12:57;6.30;1.00
4826;DHT22;2427;50.934;6.776;2022-12-07T14:15:27;6.20;1.00
4826;DHT22;2427;50.934;6.776;2022-12-07T14:17:55;6.20;1.00
4826;DHT22;2427;50.934;6.776;2022-12-07T14:20:33;6.10;1.00
4826;DHT22;2427;50.934;6.776;2022-12-07T14:23:00;6.10;1.00
4826;DHT22;2427;50.934;6.776;2022-12-07T14:25:48;6.10;1.00
4826;DHT22;2427;50.934;6.776;2022-12-07T14:28:31;6.10;1.00
4826;DHT22;2427;50.934;6.776;2022-12-07T14:30:58;6.00;22.80
4826;DHT22;2427;50.934;6.776;2022-12-07T14:33:24;6.00;81.10
4826;DHT22;2427;50.934;6.776;2022-12-07T14:35:50;6.00;99.90
4826;DHT22;2427;50.934;6.776;2022-12-07T14:38:20;6.00;99.90
4826;DHT22;2427;50.934;6.776;2022-12-07T14:40:47;6.00;95.10
4826;DHT22;2427;50.934;6.776;2022-12-07T14:43:15;5.90;98.00
4826;DHT22;2427;50.934;6.776;2022-12-07T14:45:41;5.90;76.80
4826;DHT22;2427;50.934;6.776;2022-12-07T14:48:11;5.80;99.90
4826;DHT22;2427;50.934;6.776;2022-12-07T14:50:47;5.80;99.90
4826;DHT22;2427;50.934;6.776;2022-12-07T14:53:17;5.80;99.90
4826;DHT22;2427;50.934;6.776;2022-12-07T14:55:43;5.90;99.90
4826;DHT22;2427;50.934;6.776;2022-12-07T14:58:18;5.90;99.90
4826;DHT22;2427;50.934;6.776;2022-12-07T15:00:44;5.80;99.90
4826;DHT22;2427;50.934;6.776;2022-12-07T15:03:10;5.90;99.90
4826;DHT22;2427;50.934;6.776;2022-12-07T15:05:36;5.90;99.90
4826;DHT22;2427;50.934;6.776;2022-12-07T15:08:02;5.80;99.90
4826;DHT22;2427;50.934;6.776;2022-12-07T15:10:31;5.90;99.00
4826;DHT22;2427;50.934;6.776;2022-12-07T15:13:01;5.80;92.90
4826;DHT22;2427;50.934;6.776;2022-12-07T15:15:46;5.80;99.90
4826;DHT22;2427;50.934;6.776;2022-12-07T15:18:13;5.80;99.90
4826;DHT22;2427;50.934;6.776;2022-12-07T15:20:38;5.70;99.90
4826;DHT22;2427;50.934;6.776;2022-12-07T15:23:04;5.70;99.90
4826;DHT22;2427;50.934;6.776;2022-12-07T15:25:30;5.70;99.90
4826;DHT22;2427;50.934;6.776;2022-12-07T15:27:55;5.60;99.90
4826;DHT22;2427;50.934;6.776;2022-12-07T15:30:21;5.60;99.90
4826;DHT22;2427;50.934;6.776;2022-12-07T15:32:51;5.60;99.90
4826;DHT22;2427;50.934;6.776;2022-12-07T15:35:16;5.60;99.90
4826;DHT22;2427;50.934;6.776;2022-12-07T15:37:42;5.50;99.90
4826;DHT22;2427;50.934;6.776;2022-12-07T15:40:08;5.50;57.40
4826;DHT22;2427;50.934;6.776;2022-12-07T15:42:35;5.40;45.70
4826;DHT22;2427;50.934;6.776;2022-12-07T15:45:02;5.30;99.90
4826;DHT22;2427;50.934;6.776;2022-12-07T15:47:35;5.30;99.90
4826;DHT22;2427;50.934;6.776;2022-12-07T15:50:03;5.20;99.90
4826;DHT22;2427;50.934;6.776;2022-12-07T15:52:29;5.10;99.90
4826;DHT22;2427;50.934;6.776;2022-12-07T15:54:55;5.10;99.90
4826;DHT22;2427;50.934;6.776;2022-12-07T15:57:21;5.00;99.90
4826;DHT22;2427;50.934;6.776;2022-12-07T15:59:47;4.90;99.90
4826;DHT22;2427;50.934;6.776;2022-12-07T16:02:12;4.80;99.90
4826;DHT22;2427;50.934;6.776;2022-12-07T16:04:38;4.70;99.90
4826;DHT22;2427;50.934;6.776;2022-12-07T16:07:03;4.70;99.90
4826;DHT22;2427;50.934;6.776;2022-12-07T16:09:29;4.70;99.90
4826;DHT22;2427;50.934;6.776;2022-12-07T16:11:55;4.60;99.90
4826;DHT22;2427;50.934;6.776;2022-12-07T16:14:21;4.50;99.90
4826;DHT22;2427;50.934;6.776;2022-12-07T16:16:47;4.50;99.90
4826;DHT22;2427;50.934;6.776;2022-12-07T16:19:12;4.40;99.90
4826;DHT22;2427;50.934;6.776;2022-12-07T16:21:38;4.30;99.90
4826;DHT22;2427;50.934;6.776;2022-12-07T16:24:05;4.40;99.90
4826;DHT22;2427;50.934;6.776;2022-12-07T16:26:31;4.30;99.90
4826;DHT22;2427;50.934;6.776;2022-12-07T16:28:57;4.30;99.90
4826;DHT22;2427;50.934;6.776;2022-12-07T16:31:24;4.40;99.90
4826;DHT22;2427;50.934;6.776;2022-12-07T16:33:53;4.30;99.90
4826;DHT22;2427;50.934;6.776;2022-12-07T16:36:19;4.30;99.90
4826;DHT22;2427;50.934;6.776;2022-12-07T16:38:47;4.30;99.90
4826;DHT22;2427;50.934;6.776;2022-12-07T16:41:13;4.30;99.90
4826;DHT22;2427;50.934;6.776;2022-12-07T16:43:39;4.40;99.90
4826;DHT22;2427;50.934;6.776;2022-12-07T16:46:06;4.30;99.90
4826;DHT22;2427;50.934;6.776;2022-12-07T16:48:33;4.30;99.90
4826;DHT22;2427;50.934;6.776;2022-12-07T16:51:03;4.30;99.90
4826;DHT22;2427;50.934;6.776;2022-12-07T16:53:29;4.40;99.90
4826;DHT22;2427;50.934;6.776;2022-12-07T16:55:54;4.40;99.90
4826;DHT22;2427;50.934;6.776;2022-12-07T16:58:20;4.30;99.90
4826;DHT22;2427;50.934;6.776;2022-12-07T17:00:46;4.40;99.90
4826;DHT22;2427;50.934;6.776;2022-12-07T17:03:11;4.40;99.90
4826;DHT22;2427;50.934;6.776;2022-12-07T17:05:42;4.30;99.90
4826;DHT22;2427;50.934;6.776;2022-12-07T17:08:08;4.30;99.90
4826;DHT22;2427;50.934;6.776;2022-12-07T17:10:36;4.30;99.90
4826;DHT22;2427;50.934;6.776;2022-12-07T17:13:03;4.40;99.90
4826;DHT22;2427;50.934;6.776;2022-12-07T17:18:22;4.40;99.90
4826;DHT22;2427;50.934;6.776;2022-12-07T17:20:47;4.40;1.00
4826;DHT22;2427;50.934;6.776;2022-12-07T17:23:13;4.50;1.00
4826;DHT22;2427;50.934;6.776;2022-12-07T17:25:38;4.50;1.00
4826;DHT22;2427;50.934;6.776;2022-12-07T17:28:04;4.50;1.00
4826;DHT22;2427;50.934;6.776;2022-12-07T17:30:30;4.50;1.00
4826;DHT22;2427;50.934;6.776;2022-12-07T17:32:56;4.60;1.00
4826;DHT22;2427;50.934;6.776;2022-12-07T17:35:22;4.50;1.00
4826;DHT22;2427;50.934;6.776;2022-12-07T17:37:47;4.50;1.00
4826;DHT22;2427;50.934;6.776;2022-12-07T17:40:14;4.60;1.00
4826;DHT22;2427;50.934;6.776;2022-12-07T17:42:40;4.50;1.00
4826;DHT22;2427;50.934;6.776;2022-12-07T17:45:10;4.50;1.00
4826;DHT22;2427;50.934;6.776;2022-12-07T17:47:37;4.60;1.00
4826;DHT22;2427;50.934;6.776;2022-12-07T17:50:04;4.60;1.00
4826;DHT22;2427;50.934;6.776;2022-12-07T17:52:30;4.60;1.00
4826;DHT22;2427;50.934;6.776;2022-12-07T17:55:14;4.70;1.00
4826;DHT22;2427;50.934;6.776;2022-12-07T17:57:40;4.60;1.00
4826;DHT22;2427;50.934;6.776;2022-12-07T18:00:06;4.70;1.00
4826;DHT22;2427;50.934;6.776;2022-12-07T18:02:33;4.70;1.00
4826;DHT22;2427;50.934;6.776;2022-12-07T18:04:58;4.70;1.00
4826;DHT22;2427;50.934;6.776;2022-12-07T18:07:24;4.70;1.00
4826;DHT22;2427;50.934;6.776;2022-12-07T18:09:49;4.70;1.00
4826;DHT22;2427;50.934;6.776;2022-12-07T18:12:15;4.70;1.00
4826;DHT22;2427;50.934;6.776;2022-12-07T18:14:40;4.70;1.00
4826;DHT22;2427;50.934;6.776;2022-12-07T18:17:06;4.70;1.00
4826;DHT22;2427;50.934;6.776;2022-12-07T18:19:31;4.80;1.00
4826;DHT22;2427;50.934;6.776;2022-12-07T18:22:01;4.80;1.00
4826;DHT22;2427;50.934;6.776;2022-12-07T18:24:27;4.70;1.00
4826;DHT22;2427;50.934;6.776;2022-12-07T18:26:52;4.70;1.00
4826;DHT22;2427;50.934;6.776;2022-12-07T18:29:18;4.80;1.00
4826;DHT22;2427;50.934;6.776;2022-12-07T18:31:45;4.80;1.00
4826;DHT22;2427;50.934;6.776;2022-12-07T18:34:13;4.80;1.00
4826;DHT22;2427;50.934;6.776;2022-12-07T18:36:41;4.70;1.00
4826;DHT22;2427;50.934;6.776;2022-12-07T18:39:07;4.70;1.00
4826;DHT22;2427;50.934;6.776;2022-12-07T18:41:33;4.60;1.00
4826;DHT22;2427;50.934;6.776;2022-12-07T18:43:59;4.60;1.00
4826;DHT22;2427;50.934;6.776;2022-12-07T18:46:27;4.60;1.00
4826;DHT22;2427;50.934;6.776;2022-12-07T18:48:53;4.60;1.00
4826;DHT22;2427;50.934;6.776;2022-12-07T18:51:21;4.60;1.00